Time;durP1;ratioP1;P1;durP2;ratioP2;P2;SDS_P1;SDS_P2;PMS_P1;PMS_P2;Temp;Humidity;BMP_temperature;BMP_pressure;BME280_temperature;BME280_humidity;BME280_pressure;Samples;Min_cycle;Max_cycle;Signal;HPM_P1;HPM_P2
2023/09/11 00:01:43;;;;;;;24.25;11.80;;;22.00;99.90;;;;;;4232154;28;20044;-85
2023/09/11 00:03:44;;;;;;;17.58;10.35;;;22.00;99.90;;;;;;4231590;28;20053;-85
2023/09/11 00:05:50;;;;;;;19.27;11.65;;;22.00;99.90;;;;;;4232459;28;20047;-84
2023/09/11 00:07:52;;;;;;;17.83;10.50;;;22.00;99.90;;;;;;4231767;28;20044;-85
2023/09/11 00:09:53;;;;;;;17.20;10.57;;;21.90;99.90;;;;;;4232190;28;20415;-84
2023/09/11 00:11:54;;;;;;;16.35;11.07;;;22.00;99.90;;;;;;4231972;28;20047;-85
2023/09/11 00:13:54;;;;;;;22.27;11.80;;;21.90;99.90;;;;;;4239854;27;20082;-85
2023/09/11 00:15:55;;;;;;;16.40;10.23;;;21.90;99.90;;;;;;4248452;27;20600;-85
2023/09/11 00:17:56;;;;;;;19.85;11.38;;;21.80;99.90;;;;;;4230346;28;20047;-85
2023/09/11 00:19:57;;;;;;;25.13;11.50;;;21.80;99.90;;;;;;4249058;27;20039;-84
2023/09/11 00:21:58;;;;;;;19.55;10.93;;;21.80;99.90;;;;;;4249019;27;20047;-85
2023/09/11 00:23:58;;;;;;;15.05;10.15;;;21.70;99.90;;;;;;4248535;27;20050;-85
2023/09/11 00:25:59;;;;;;;17.23;10.93;;;21.70;99.90;;;;;;4248922;27;20510;-85
2023/09/11 00:28:00;;;;;;;18.77;11.38;;;21.70;99.90;;;;;;4212932;28;20047;-85
2023/09/11 00:30:01;;;;;;;15.73;10.57;;;21.70;99.90;;;;;;4248630;27;20051;-85
2023/09/11 00:32:02;;;;;;;13.45;10.43;;;21.70;99.90;;;;;;4248796;27;20043;-85
2023/09/11 00:34:02;;;;;;;29.38;11.35;;;21.70;99.90;;;;;;4248802;27;20035;-86
2023/09/11 00:36:03;;;;;;;17.48;10.95;;;21.70;99.90;;;;;;4230380;28;20148;-85
2023/09/11 00:38:05;;;;;;;21.85;11.07;;;21.70;99.90;;;;;;4248489;27;20046;-85
2023/09/11 00:40:06;;;;;;;28.20;12.43;;;21.60;99.90;;;;;;4248479;27;20065;-85
2023/09/11 00:42:07;;;;;;;23.17;11.05;;;21.60;99.90;;;;;;4248167;27;20462;-85
2023/09/11 00:44:08;;;;;;;19.00;9.57;;;21.60;99.90;;;;;;4229487;28;20047;-85
2023/09/11 00:46:09;;;;;;;18.38;10.50;;;21.60;99.90;;;;;;4248619;27;20411;-85
2023/09/11 00:48:12;;;;;;;19.75;10.63;;;21.60;99.90;;;;;;4230118;28;20048;-85
2023/09/11 00:50:15;;;;;;;16.80;11.05;;;21.50;99.90;;;;;;4248394;27;20506;-85
2023/09/11 00:52:16;;;;;;;21.05;10.07;;;21.50;99.90;;;;;;4229924;28;20052;-85
2023/09/11 00:54:21;;;;;;;21.90;11.15;;;21.20;99.90;;;;;;4248282;27;20099;-85
2023/09/11 00:56:22;;;;;;;20.15;11.05;;;21.50;99.90;;;;;;4247778;27;20039;-85
2023/09/11 00:58:24;;;;;;;22.42;10.50;;;21.40;99.90;;;;;;4248124;27;20051;-85
2023/09/11 01:00:25;;;;;;;21.98;10.20;;;21.40;99.90;;;;;;4248270;27;20432;-85
2023/09/11 01:02:26;;;;;;;18.60;11.30;;;21.40;99.90;;;;;;4248197;27;20043;-85
2023/09/11 01:04:28;;;;;;;18.40;10.65;;;21.40;99.90;;;;;;4229645;28;20127;-85
2023/09/11 01:06:29;;;;;;;26.67;11.57;;;21.10;99.90;;;;;;4248045;28;20039;-85
2023/09/11 01:08:30;;;;;;;25.45;10.82;;;21.30;99.90;;;;;;4248098;28;20112;-85
2023/09/11 01:10:33;;;;;;;19.90;11.18;;;21.30;99.90;;;;;;4247898;28;20043;-85
2023/09/11 01:12:37;;;;;;;27.63;12.95;;;21.20;99.90;;;;;;4247650;28;20491;-85
2023/09/11 01:14:38;;;;;;;28.70;11.10;;;21.20;99.90;;;;;;4247883;28;20433;-85
2023/09/11 01:16:55;;;;;;;18.85;10.82;;;21.20;99.90;;;;;;4247752;27;20130;-85
2023/09/11 01:19:09;;;;;;;18.50;10.48;;;21.20;99.90;;;;;;4248070;28;20043;-84
2023/09/11 01:21:29;;;;;;;18.88;10.75;;;21.20;99.90;;;;;;4247865;28;20058;-85
2023/09/11 01:24:19;;;;;;;19.92;10.27;;;21.10;99.90;;;;;;4247553;28;20464;-84
2023/09/11 01:26:39;;;;;;;18.23;9.98;;;21.10;99.90;;;;;;4194410;28;20054;-85
2023/09/11 01:28:55;;;;;;;19.58;10.95;;;21.10;99.90;;;;;;4247855;28;20118;-84
2023/09/11 01:30:59;;;;;;;26.20;10.00;;;21.10;99.90;;;;;;4247849;28;20126;-84
2023/09/11 01:33:00;;;;;;;26.58;11.20;;;21.10;99.90;;;;;;4229651;28;20152;-84
2023/09/11 01:35:01;;;;;;;24.60;11.18;;;21.00;99.90;;;;;;4248024;28;20039;-84
2023/09/11 01:37:01;;;;;;;20.00;11.63;;;21.00;99.90;;;;;;4247733;28;20122;-84
2023/09/11 01:39:03;;;;;;;16.02;10.40;;;21.00;99.90;;;;;;4247485;28;20043;-85
2023/09/11 01:41:06;;;;;;;19.00;11.13;;;21.00;99.90;;;;;;4229433;28;20052;-84
2023/09/11 01:43:09;;;;;;;29.08;11.30;;;21.00;99.90;;;;;;4247430;28;20043;-84
2023/09/11 01:45:14;;;;;;;21.45;10.52;;;20.90;99.90;;;;;;4229593;28;20063;-84
2023/09/11 01:47:20;;;;;;;21.75;11.30;;;21.00;99.90;;;;;;4228953;28;20044;-84
2023/09/11 01:49:22;;;;;;;26.70;10.98;;;20.90;99.90;;;;;;4229275;28;20395;-84
2023/09/11 01:51:24;;;;;;;21.27;10.82;;;20.90;99.90;;;;;;4229606;28;20377;-84
2023/09/11 01:53:26;;;;;;;22.25;10.10;;;20.90;99.90;;;;;;4229386;28;20330;-84
2023/09/11 01:55:28;;;;;;;21.27;12.55;;;20.90;99.90;;;;;;4231747;28;20051;-85
2023/09/11 01:57:28;;;;;;;27.27;12.60;;;21.70;99.90;;;;;;4232672;28;20100;-85
2023/09/11 01:59:31;;;;;;;20.77;11.00;;;20.80;99.90;;;;;;4232705;28;20143;-85
2023/09/11 02:01:31;;;;;;;22.50;11.20;;;20.80;99.90;;;;;;4232386;28;20055;-85
2023/09/11 02:03:32;;;;;;;16.05;10.60;;;20.80;99.90;;;;;;4232236;28;20085;-85
2023/09/11 02:05:33;;;;;;;19.58;10.88;;;20.80;99.90;;;;;;4250613;27;20107;-85
2023/09/11 02:07:34;;;;;;;27.38;11.90;;;20.80;99.90;;;;;;4250756;27;20380;-84
2023/09/11 02:09:34;;;;;;;22.40;11.65;;;20.80;99.90;;;;;;4250683;27;20053;-84
2023/09/11 02:11:35;;;;;;;23.48;11.80;;;20.70;99.90;;;;;;4250079;27;20065;-85
2023/09/11 02:13:36;;;;;;;22.35;11.55;;;20.70;99.90;;;;;;4250103;27;20479;-85
2023/09/11 02:15:37;;;;;;;17.42;11.23;;;20.70;99.90;;;;;;4232038;28;20122;-85
2023/09/11 02:17:38;;;;;;;21.08;11.88;;;20.70;99.90;;;;;;4250373;27;20483;-85
2023/09/11 02:19:38;;;;;;;17.35;11.57;;;20.70;99.90;;;;;;4250398;27;20394;-85
2023/09/11 02:21:39;;;;;;;23.80;11.00;;;20.70;99.90;;;;;;4250285;27;20068;-85
2023/09/11 02:23:41;;;;;;;21.05;11.95;;;20.60;99.90;;;;;;4250330;27;20101;-84
2023/09/11 02:25:42;;;;;;;23.65;11.20;;;20.60;99.90;;;;;;4214796;28;20075;-85
2023/09/11 02:27:43;;;;;;;20.70;11.18;;;20.50;99.90;;;;;;4215044;28;20048;-85
2023/09/11 02:29:44;;;;;;;20.92;12.48;;;20.50;99.90;;;;;;4250125;27;20043;-84
2023/09/11 02:31:44;;;;;;;26.08;11.95;;;20.50;99.90;;;;;;4215269;28;20756;-85
2023/09/11 02:33:45;;;;;;;23.75;11.73;;;20.50;99.90;;;;;;4249942;27;20095;-85
2023/09/11 02:35:56;;;;;;;18.40;11.43;;;20.50;99.90;;;;;;4214495;28;20086;-85
2023/09/11 02:37:57;;;;;;;24.08;11.80;;;20.50;99.90;;;;;;4231906;28;20051;-85
2023/09/11 02:39:59;;;;;;;24.55;11.80;;;20.40;99.90;;;;;;4231827;28;20050;-85
2023/09/11 02:42:00;;;;;;;16.15;11.20;;;20.40;99.90;;;;;;4249943;27;20035;-85
2023/09/11 02:44:01;;;;;;;23.65;11.52;;;20.40;99.90;;;;;;4249901;27;20506;-85
2023/09/11 02:46:02;;;;;;;19.95;12.02;;;20.40;99.90;;;;;;4231544;28;20053;-85
2023/09/11 02:48:03;;;;;;;25.63;12.13;;;20.40;99.90;;;;;;4250016;27;20391;-85
2023/09/11 02:50:04;;;;;;;22.17;11.52;;;20.40;99.90;;;;;;4231573;28;20048;-84
2023/09/11 02:52:05;;;;;;;19.45;11.82;;;20.30;99.90;;;;;;4249828;27;20801;-84
2023/09/11 02:54:06;;;;;;;24.73;11.32;;;20.30;99.90;;;;;;4231586;28;20040;-84
2023/09/11 02:56:07;;;;;;;19.88;11.27;;;20.30;99.90;;;;;;4214546;28;20052;-86
2023/09/11 02:58:08;;;;;;;23.55;11.90;;;20.20;99.90;;;;;;4249484;27;20075;-84
2023/09/11 03:00:09;;;;;;;28.73;11.88;;;20.30;99.90;;;;;;4249907;27;20136;-84
2023/09/11 03:02:10;;;;;;;23.35;12.23;;;20.30;99.90;;;;;;4214793;28;20154;-86
2023/09/11 03:04:11;;;;;;;24.70;11.88;;;20.30;99.90;;;;;;4249614;27;20405;-84
2023/09/11 03:06:11;;;;;;;21.73;11.68;;;20.20;99.90;;;;;;4248979;27;20035;-83
2023/09/11 03:08:12;;;;;;;26.08;11.23;;;20.30;99.90;;;;;;4215184;28;20085;-84
2023/09/11 03:10:13;;;;;;;20.85;11.50;;;20.20;99.90;;;;;;4213988;28;20101;-84
2023/09/11 03:12:14;;;;;;;21.67;11.80;;;20.20;99.90;;;;;;4249430;27;20397;-84
2023/09/11 03:14:17;;;;;;;23.20;12.00;;;20.20;99.90;;;;;;4231124;28;20052;-85
2023/09/11 03:16:17;;;;;;;16.77;10.85;;;20.20;99.90;;;;;;4249590;27;20502;-84
2023/09/11 03:18:20;;;;;;;23.08;11.75;;;20.20;99.90;;;;;;4231374;28;20051;-84
2023/09/11 03:20:21;;;;;;;22.08;11.60;;;20.20;99.90;;;;;;4230930;28;20036;-84
2023/09/11 03:22:22;;;;;;;19.35;12.52;;;20.20;99.90;;;;;;4214203;28;20050;-85
2023/09/11 03:24:23;;;;;;;17.38;10.90;;;20.10;99.90;;;;;;4214322;28;20056;-85
2023/09/11 03:26:24;;;;;;;24.45;11.73;;;20.10;99.90;;;;;;4230849;28;20381;-84
2023/09/11 03:28:27;;;;;;;19.63;11.05;;;20.10;99.90;;;;;;4230902;28;20083;-85
2023/09/11 03:30:28;;;;;;;25.48;12.07;;;20.10;99.90;;;;;;4230872;28;20054;-85
2023/09/11 03:32:29;;;;;;;32.50;11.77;;;20.10;99.90;;;;;;4248999;27;20118;-84
2023/09/11 03:34:30;;;;;;;19.58;11.27;;;20.00;99.90;;;;;;4249134;27;20043;-85
2023/09/11 03:36:30;;;;;;;22.40;10.85;;;20.10;99.90;;;;;;4231051;28;20046;-84
2023/09/11 03:38:32;;;;;;;26.42;13.45;;;20.10;99.90;;;;;;4248980;27;20043;-84
2023/09/11 03:40:33;;;;;;;26.20;12.57;;;20.10;99.90;;;;;;4230858;28;20050;-84
2023/09/11 03:42:34;;;;;;;18.77;10.60;;;20.00;99.90;;;;;;4248825;27;20092;-85
2023/09/11 03:44:36;;;;;;;27.48;11.45;;;20.00;99.90;;;;;;4249284;27;20047;-84
2023/09/11 03:46:36;;;;;;;25.58;12.13;;;20.00;99.90;;;;;;4249240;27;20087;-85
2023/09/11 03:48:37;;;;;;;28.35;12.30;;;20.00;99.90;;;;;;4249351;27;20564;-85
2023/09/11 03:50:38;;;;;;;24.15;11.80;;;19.90;99.90;;;;;;4249343;27;20051;-86
2023/09/11 03:52:41;;;;;;;19.38;11.15;;;19.90;99.90;;;;;;4249714;27;20038;-85
2023/09/11 03:54:41;;;;;;;26.85;11.30;;;20.00;99.90;;;;;;4250622;27;20035;-84
2023/09/11 03:56:43;;;;;;;23.90;12.07;;;19.90;99.90;;;;;;4249238;27;20077;-85
2023/09/11 03:58:44;;;;;;;22.90;10.85;;;19.90;99.90;;;;;;4230975;28;20533;-85
2023/09/11 04:00:45;;;;;;;25.08;11.85;;;19.90;99.90;;;;;;4230851;28;20154;-84
2023/09/11 04:02:45;;;;;;;22.00;11.55;;;19.90;99.90;;;;;;4250392;27;20947;-85
2023/09/11 04:04:46;;;;;;;22.48;11.65;;;19.90;99.90;;;;;;4230884;28;20892;-84
2023/09/11 04:06:47;;;;;;;25.70;12.00;;;19.80;99.90;;;;;;4230712;28;20040;-84
2023/09/11 04:08:49;;;;;;;21.00;10.85;;;19.90;99.90;;;;;;4213921;28;20061;-84
2023/09/11 04:10:49;;;;;;;25.30;12.65;;;19.90;99.90;;;;;;4223781;28;20074;-86
2023/09/11 04:12:50;;;;;;;20.85;11.48;;;19.90;99.90;;;;;;4231763;28;20047;-86
2023/09/11 04:14:51;;;;;;;36.42;12.35;;;19.90;99.90;;;;;;4196701;28;20044;-84
2023/09/11 04:16:52;;;;;;;25.60;12.43;;;19.80;99.90;;;;;;4229843;28;20047;-84
2023/09/11 04:18:52;;;;;;;33.42;12.10;;;19.80;99.90;;;;;;4230748;28;20072;-84
2023/09/11 04:21:03;;;;;;;21.17;12.30;;;19.80;99.90;;;;;;4231384;28;20111;-85
2023/09/11 04:23:04;;;;;;;20.50;11.13;;;19.80;99.90;;;;;;4213193;28;20139;-85
2023/09/11 04:25:13;;;;;;;24.40;11.02;;;19.80;99.90;;;;;;4223116;28;20024;-85
2023/09/11 04:27:15;;;;;;;19.92;11.30;;;19.80;99.90;;;;;;4245803;28;20073;-84
2023/09/11 04:29:16;;;;;;;28.92;12.52;;;19.80;99.90;;;;;;4222555;28;20047;-84
2023/09/11 04:31:17;;;;;;;23.48;11.98;;;19.80;99.90;;;;;;4240214;28;20096;-84
2023/09/11 04:33:18;;;;;;;22.55;11.52;;;20.60;99.90;;;;;;4240145;28;20092;-84
2023/09/11 04:35:20;;;;;;;24.73;11.25;;;19.70;99.90;;;;;;4241624;28;20040;-84
2023/09/11 04:37:21;;;;;;;33.50;13.30;;;19.70;99.90;;;;;;4224475;28;20043;-85
2023/09/11 04:39:23;;;;;;;26.10;11.20;;;19.70;99.90;;;;;;4242368;28;20082;-85
2023/09/11 04:41:24;;;;;;;27.48;11.35;;;19.60;99.90;;;;;;4224602;28;20054;-85
2023/09/11 04:43:25;;;;;;;30.30;11.93;;;19.70;99.90;;;;;;4224917;28;20044;-85
2023/09/11 04:45:26;;;;;;;28.55;11.82;;;19.50;99.90;;;;;;4242866;28;20044;-84
2023/09/11 04:47:30;;;;;;;21.75;12.13;;;19.70;99.90;;;;;;4241348;28;20043;-85
2023/09/11 04:49:31;;;;;;;27.58;12.40;;;19.60;99.90;;;;;;4224040;28;20058;-85
2023/09/11 04:51:32;;;;;;;27.17;11.25;;;19.60;99.90;;;;;;4221767;28;20051;-85
2023/09/11 04:53:32;;;;;;;21.63;11.75;;;19.70;99.90;;;;;;4205820;28;20098;-85
2023/09/11 04:55:33;;;;;;;22.25;13.27;;;19.70;99.90;;;;;;4239913;28;20043;-85
2023/09/11 04:57:40;;;;;;;24.52;12.23;;;19.60;99.90;;;;;;4221468;28;20051;-85
2023/09/11 04:59:53;;;;;;;30.30;11.50;;;19.60;99.90;;;;;;4219972;28;20063;-85
2023/09/11 05:01:53;;;;;;;20.00;11.88;;;19.60;99.90;;;;;;4199288;28;20048;-85
2023/09/11 05:03:55;;;;;;;24.63;12.50;;;19.60;99.90;;;;;;4233729;28;20046;-85
2023/09/11 05:05:56;;;;;;;20.75;11.43;;;19.60;99.90;;;;;;4231646;28;20123;-84
2023/09/11 05:07:58;;;;;;;27.38;12.20;;;19.60;99.90;;;;;;4197017;28;20511;-85
2023/09/11 05:10:01;;;;;;;18.90;11.90;;;19.60;99.90;;;;;;4231213;28;20036;-85
2023/09/11 05:12:01;;;;;;;21.38;11.73;;;19.60;99.90;;;;;;4231569;28;20071;-85
2023/09/11 05:14:02;;;;;;;23.05;12.35;;;20.30;99.90;;;;;;4231238;28;20101;-85
2023/09/11 05:16:03;;;;;;;22.33;12.38;;;19.60;99.90;;;;;;4231102;28;20051;-84
2023/09/11 05:18:04;;;;;;;27.70;12.95;;;19.60;99.90;;;;;;4231100;28;20048;-85
2023/09/11 05:20:06;;;;;;;24.58;11.55;;;19.60;99.90;;;;;;4196082;28;20037;-84
2023/09/11 05:22:08;;;;;;;23.80;11.75;;;19.60;99.90;;;;;;4231458;28;20566;-85
2023/09/11 05:24:08;;;;;;;26.95;11.63;;;19.60;99.90;;;;;;4231082;28;20550;-85
2023/09/11 05:26:09;;;;;;;27.60;12.10;;;19.60;99.90;;;;;;4230825;28;20044;-84
2023/09/11 05:28:10;;;;;;;22.30;12.32;;;19.60;99.90;;;;;;4196170;28;20503;-84
2023/09/11 05:30:12;;;;;;;30.00;12.32;;;19.60;99.90;;;;;;4198191;28;20127;-85
2023/09/11 05:32:13;;;;;;;27.35;12.27;;;19.60;99.90;;;;;;4238593;27;20051;-85
2023/09/11 05:34:14;;;;;;;31.05;12.80;;;19.60;99.90;;;;;;4234201;28;20068;-85
2023/09/11 05:36:15;;;;;;;22.50;11.48;;;19.70;99.90;;;;;;4234399;28;20411;-84
2023/09/11 05:38:16;;;;;;;19.98;12.13;;;19.70;99.90;;;;;;4199440;28;20047;-85
2023/09/11 05:40:17;;;;;;;24.60;11.32;;;19.70;99.90;;;;;;4216542;28;20172;-84
2023/09/11 05:42:20;;;;;;;26.15;10.30;;;19.10;99.90;;;;;;4234379;28;20075;-84
2023/09/11 05:44:21;;;;;;;24.13;10.73;;;19.70;99.90;;;;;;4198865;28;20045;-85
2023/09/11 05:46:24;;;;;;;30.95;12.55;;;19.80;99.90;;;;;;4200231;28;20082;-91
2023/09/11 05:48:25;;;;;;;28.92;11.90;;;19.70;99.90;;;;;;4222341;28;20044;-94
2023/09/11 05:50:27;;;;;;;23.60;10.77;;;20.00;99.90;;;;;;4204370;28;20052;-91
2023/09/11 05:52:28;;;;;;;26.02;12.13;;;19.80;99.90;;;;;;4219339;28;20518;-90
2023/09/11 05:54:33;;;;;;;23.00;11.68;;;19.90;99.90;;;;;;4199460;28;20052;-89
2023/09/11 05:56:34;;;;;;;31.83;12.35;;;19.90;99.90;;;;;;4233646;28;20035;-85
2023/09/11 05:58:35;;;;;;;29.00;11.50;;;19.90;99.90;;;;;;4233283;28;20069;-87
2023/09/11 06:00:36;;;;;;;19.23;11.70;;;19.90;99.90;;;;;;4217022;28;20114;-90
2023/09/11 06:02:36;;;;;;;29.85;11.40;;;19.90;99.90;;;;;;4198863;28;20396;-85
2023/09/11 06:04:38;;;;;;;34.78;13.15;;;19.90;99.90;;;;;;4239162;27;20404;-85
2023/09/11 06:06:39;;;;;;;65.38;12.27;;;20.00;99.90;;;;;;4220210;28;20052;-86
2023/09/11 06:08:40;;;;;;;30.35;11.23;;;20.00;99.90;;;;;;4215878;28;20067;-87
2023/09/11 06:10:41;;;;;;;22.15;11.32;;;20.00;99.90;;;;;;4215533;28;20119;-88
2023/09/11 06:12:42;;;;;;;24.33;10.85;;;20.10;99.90;;;;;;4233655;28;20400;-87
2023/09/11 06:14:43;;;;;;;20.88;10.88;;;20.10;99.90;;;;;;4233750;28;20043;-87
2023/09/11 06:16:44;;;;;;;28.25;11.85;;;20.20;99.90;;;;;;4233715;28;20047;-87
2023/09/11 06:18:44;;;;;;;30.17;11.75;;;20.20;99.90;;;;;;4233688;28;20118;-87
2023/09/11 06:20:45;;;;;;;28.20;11.68;;;20.20;99.90;;;;;;4215616;28;20048;-87
2023/09/11 06:22:46;;;;;;;37.67;13.73;;;20.20;99.90;;;;;;4202286;28;20048;-86
2023/09/11 06:24:47;;;;;;;31.83;11.32;;;20.30;99.90;;;;;;4221591;28;20039;-85
2023/09/11 06:27:02;;;;;;;21.92;10.55;;;20.30;99.90;;;;;;4232159;28;20122;-84
2023/09/11 06:29:03;;;;;;;29.50;11.23;;;20.30;99.90;;;;;;4222803;28;20051;-83
2023/09/11 06:31:04;;;;;;;26.42;11.95;;;20.40;99.90;;;;;;4250265;27;20035;-83
2023/09/11 06:33:05;;;;;;;27.60;11.63;;;20.40;99.90;;;;;;4249621;27;20043;-84
2023/09/11 06:35:06;;;;;;;36.97;14.02;;;20.40;99.90;;;;;;4231854;28;20473;-83
2023/09/11 06:37:09;;;;;;;27.42;11.77;;;20.40;99.90;;;;;;4249516;27;20035;-85
2023/09/11 06:39:09;;;;;;;27.08;11.98;;;20.40;99.90;;;;;;4250172;27;20436;-84
2023/09/11 06:41:10;;;;;;;24.08;10.95;;;20.50;99.90;;;;;;4214030;28;20055;-84
2023/09/11 06:43:12;;;;;;;25.70;10.90;;;20.60;99.90;;;;;;4250132;27;20526;-84
2023/09/11 06:45:13;;;;;;;28.23;10.73;;;20.60;99.90;;;;;;4250265;27;20081;-85
2023/09/11 06:47:15;;;;;;;29.40;12.50;;;20.60;99.90;;;;;;4231996;28;20067;-84
2023/09/11 06:49:16;;;;;;;17.83;10.27;;;20.60;99.90;;;;;;4214504;28;20520;-84
2023/09/11 06:51:16;;;;;;;26.02;10.75;;;20.80;99.90;;;;;;4249852;27;20064;-84
2023/09/11 06:53:18;;;;;;;34.25;11.00;;;20.80;99.90;;;;;;4249777;27;20174;-84
2023/09/11 06:55:18;;;;;;;37.92;11.60;;;20.90;99.90;;;;;;4249881;27;20478;-85
2023/09/11 06:57:19;;;;;;;26.83;11.52;;;21.00;99.90;;;;;;4231627;28;20035;-84
2023/09/11 06:59:20;;;;;;;24.23;11.55;;;21.20;99.90;;;;;;4249356;27;20039;-84
2023/09/11 07:01:21;;;;;;;26.73;10.15;;;21.30;99.90;;;;;;4250014;27;20449;-84
2023/09/11 07:03:21;;;;;;;22.83;11.32;;;21.40;99.90;;;;;;4231440;28;20455;-85
2023/09/11 07:05:22;;;;;;;27.60;10.63;;;21.50;99.90;;;;;;4214719;28;20507;-84
2023/09/11 07:07:25;;;;;;;25.58;9.85;;;21.60;99.90;;;;;;4231030;28;20416;-85
2023/09/11 07:09:26;;;;;;;19.27;10.55;;;21.70;99.90;;;;;;4249975;27;20419;-85
2023/09/11 07:11:26;;;;;;;21.63;9.98;;;21.90;99.90;;;;;;4250148;27;20137;-85
2023/09/11 07:13:27;;;;;;;25.55;10.07;;;22.00;99.90;;;;;;4249421;27;20093;-86
2023/09/11 07:15:28;;;;;;;25.67;9.90;;;22.10;99.90;;;;;;4231034;28;20048;-85
2023/09/11 07:17:29;;;;;;;24.45;9.38;;;22.20;99.90;;;;;;4231021;28;20552;-85
2023/09/11 07:19:29;;;;;;;26.98;10.48;;;22.30;99.90;;;;;;4248937;27;20135;-85
2023/09/11 07:21:30;;;;;;;21.65;9.93;;;22.40;99.90;;;;;;4214495;28;20048;-85
2023/09/11 07:23:31;;;;;;;26.23;10.27;;;22.50;99.90;;;;;;4249567;27;20433;-85
2023/09/11 07:25:31;;;;;;;17.20;9.02;;;22.60;99.90;;;;;;4232011;28;20043;-85
2023/09/11 07:27:33;;;;;;;23.58;8.98;;;22.80;99.90;;;;;;4249046;27;20403;-85
2023/09/11 07:29:34;;;;;;;25.23;9.70;;;22.80;99.90;;;;;;4231240;28;20564;-85
2023/09/11 07:31:35;;;;;;;22.13;9.73;;;23.00;99.90;;;;;;4249484;27;20125;-85
2023/09/11 07:33:36;;;;;;;22.45;9.02;;;23.20;99.90;;;;;;4249342;27;20078;-85
2023/09/11 07:35:37;;;;;;;19.73;9.88;;;23.30;99.90;;;;;;4231095;28;20051;-85
2023/09/11 07:37:38;;;;;;;17.90;8.60;;;23.40;99.90;;;;;;4231103;28;20043;-85
2023/09/11 07:39:40;;;;;;;30.35;8.13;;;23.50;99.90;;;;;;4249661;27;20126;-85
2023/09/11 07:41:40;;;;;;;25.45;8.85;;;23.50;99.90;;;;;;4231073;28;20050;-85
2023/09/11 07:43:42;;;;;;;16.52;7.97;;;23.70;99.90;;;;;;4249839;27;20129;-85
2023/09/11 07:45:44;;;;;;;17.60;7.95;;;23.70;99.90;;;;;;4232081;28;20047;-85
2023/09/11 07:47:45;;;;;;;22.02;8.15;;;23.90;99.90;;;;;;4231992;28;20054;-84
2023/09/11 07:49:47;;;;;;;25.20;8.27;;;24.00;99.90;;;;;;4249735;27;20047;-85
2023/09/11 07:51:48;;;;;;;22.98;9.40;;;24.10;99.90;;;;;;4250694;27;20047;-85
2023/09/11 07:53:49;;;;;;;18.55;8.15;;;24.20;99.90;;;;;;4232235;28;20093;-85
2023/09/11 07:55:50;;;;;;;19.88;8.68;;;24.40;99.90;;;;;;4250112;27;20035;-86
2023/09/11 07:57:52;;;;;;;23.23;7.70;;;24.50;99.90;;;;;;4249345;27;20593;-85
2023/09/11 07:59:53;;;;;;;20.08;7.97;;;24.70;99.90;;;;;;4232005;28;20474;-85
2023/09/11 08:01:54;;;;;;;24.45;10.00;;;24.70;99.90;;;;;;4214699;28;20075;-85
2023/09/11 08:03:55;;;;;;;22.63;7.20;;;25.00;99.90;;;;;;4231286;28;20138;-85
2023/09/11 08:05:55;;;;;;;19.08;7.30;;;25.10;99.90;;;;;;4248930;27;20046;-85
2023/09/11 08:07:58;;;;;;;23.38;7.45;;;25.10;99.90;;;;;;4232455;28;20126;-85
2023/09/11 08:09:59;;;;;;;17.77;8.13;;;25.30;99.90;;;;;;4249862;27;20058;-85
2023/09/11 08:12:00;;;;;;;19.35;7.40;;;25.40;99.90;;;;;;4250362;27;20538;-84
2023/09/11 08:14:01;;;;;;;15.23;7.88;;;25.50;99.90;;;;;;4231488;28;20130;-85
2023/09/11 08:16:02;;;;;;;16.00;7.50;;;25.60;99.90;;;;;;4249460;27;20066;-85
2023/09/11 08:18:03;;;;;;;14.18;6.13;;;25.80;99.90;;;;;;4231153;28;20552;-85
2023/09/11 08:20:04;;;;;;;18.10;6.45;;;25.90;99.90;;;;;;4249331;27;20035;-85
2023/09/11 08:22:05;;;;;;;15.68;6.10;;;26.10;99.90;;;;;;4232928;28;20036;-86
2023/09/11 08:24:06;;;;;;;14.60;6.40;;;26.20;99.90;;;;;;4233919;28;20617;-85
2023/09/11 08:26:08;;;;;;;18.70;7.20;;;26.30;99.90;;;;;;4229463;28;20044;-85
2023/09/11 08:28:08;;;;;;;16.88;6.43;;;26.40;99.90;;;;;;4263723;27;20065;-85
2023/09/11 08:30:09;;;;;;;17.58;5.82;;;26.60;99.90;;;;;;4248524;28;20055;-85
2023/09/11 08:32:13;;;;;;;17.48;6.97;;;27.10;99.90;;;;;;4248004;28;20088;-85
2023/09/11 08:34:14;;;;;;;26.92;6.95;;;27.00;99.90;;;;;;4247035;28;20043;-85
2023/09/11 08:36:14;;;;;;;18.98;6.97;;;27.40;99.90;;;;;;4265396;27;20064;-86
2023/09/11 08:38:18;;;;;;;17.25;6.00;;;27.60;99.90;;;;;;4244813;28;20061;-85
2023/09/11 08:40:20;;;;;;;20.45;6.38;;;28.10;99.90;;;;;;4234349;28;20047;-85
2023/09/11 08:42:23;;;;;;;18.08;5.88;;;28.50;99.90;;;;;;4249332;27;20035;-85
2023/09/11 08:44:24;;;;;;;19.52;5.93;;;28.70;99.90;;;;;;4249194;27;20043;-85
2023/09/11 08:46:28;;;;;;;11.98;5.15;;;29.00;99.90;;;;;;4213753;28;20111;-85
2023/09/11 08:48:31;;;;;;;12.20;6.00;;;29.30;99.90;;;;;;4232672;28;20052;-86
2023/09/11 08:50:33;;;;;;;12.48;5.72;;;29.60;99.90;;;;;;4214121;28;20052;-85
2023/09/11 08:52:34;;;;;;;18.08;5.40;;;29.80;99.90;;;;;;4214336;28;20138;-85
2023/09/11 08:54:40;;;;;;;14.07;6.47;;;30.00;99.90;;;;;;4231460;28;20446;-85
2023/09/11 08:56:42;;;;;;;13.90;5.03;;;30.20;99.90;;;;;;4248487;27;20479;-85
2023/09/11 08:58:43;;;;;;;13.52;4.90;;;30.50;99.90;;;;;;4247949;27;20072;-85
2023/09/11 09:00:45;;;;;;;13.77;4.60;;;30.60;99.90;;;;;;4212582;28;20121;-85
2023/09/11 09:02:47;;;;;;;17.92;5.68;;;30.20;99.90;;;;;;4213097;28;20050;-85
2023/09/11 09:04:49;;;;;;;13.60;4.47;;;30.80;99.90;;;;;;4247422;27;20543;-85
2023/09/11 09:06:50;;;;;;;14.80;5.10;;;30.90;99.90;;;;;;4248299;27;20488;-85
2023/09/11 09:08:52;;;;;;;11.40;4.32;;;31.00;99.90;;;;;;4248097;27;20039;-85
2023/09/11 09:10:54;;;;;;;16.58;5.10;;;31.10;99.90;;;;;;4247978;28;20079;-85
2023/09/11 09:12:55;;;;;;;17.55;6.25;;;31.20;99.90;;;;;;4247602;28;20542;-85
2023/09/11 09:14:56;;;;;;;20.15;5.68;;;31.50;99.90;;;;;;4248519;28;20502;-85
2023/09/11 09:16:57;;;;;;;17.10;5.40;;;31.40;99.90;;;;;;4213107;28;20094;-86
2023/09/11 09:19:00;;;;;;;10.85;5.32;;;31.60;99.90;;;;;;4230849;28;20481;-85
2023/09/11 09:21:00;;;;;;;14.32;4.72;;;31.60;99.90;;;;;;4214227;28;20044;-85
2023/09/11 09:23:02;;;;;;;13.73;5.00;;;31.80;99.90;;;;;;4231362;28;20480;-85
2023/09/11 09:25:03;;;;;;;14.57;5.90;;;31.90;99.70;;;;;;4231901;28;20046;-84
2023/09/11 09:27:06;;;;;;;12.60;5.40;;;31.80;99.30;;;;;;4249084;28;20100;-85
2023/09/11 09:29:12;;;;;;;11.10;5.07;;;31.80;98.70;;;;;;4249926;28;20074;-85
2023/09/11 09:31:25;;;;;;;19.83;5.45;;;31.90;98.50;;;;;;4249337;28;20043;-84
2023/09/11 09:33:27;;;;;;;17.40;5.20;;;31.90;97.20;;;;;;4213046;28;20044;-84
2023/09/11 09:35:33;;;;;;;11.82;5.03;;;32.10;98.80;;;;;;4213265;28;20084;-84
2023/09/11 09:37:35;;;;;;;16.50;4.90;;;32.30;98.00;;;;;;4230352;28;20047;-85
2023/09/11 09:39:40;;;;;;;12.48;5.18;;;32.60;98.60;;;;;;4248630;28;20069;-85
2023/09/11 09:41:56;;;;;;;16.17;5.25;;;32.40;97.70;;;;;;4248456;28;20051;-82
2023/09/11 09:43:57;;;;;;;11.93;5.18;;;32.30;95.50;;;;;;4230165;28;20086;-84
2023/09/11 09:45:59;;;;;;;17.83;5.82;;;32.20;97.80;;;;;;4248794;28;20043;-84
2023/09/11 09:48:07;;;;;;;18.17;5.57;;;32.10;97.80;;;;;;4213098;28;20443;-84
2023/09/11 09:50:08;;;;;;;10.15;4.88;;;32.10;98.10;;;;;;4249930;28;20536;-84
2023/09/11 09:52:09;;;;;;;16.42;5.55;;;32.30;98.40;;;;;;4265453;28;20071;-84
2023/09/11 09:54:09;;;;;;;11.65;5.32;;;32.20;98.50;;;;;;4230496;28;20094;-83
2023/09/11 09:56:12;;;;;;;14.13;5.20;;;32.10;98.50;;;;;;4216247;28;20056;-83
2023/09/11 09:58:12;;;;;;;11.65;4.95;;;32.20;98.10;;;;;;4230618;28;20031;-84
2023/09/11 10:00:16;;;;;;;15.43;4.95;;;32.10;98.50;;;;;;4231225;28;20081;-84
2023/09/11 10:02:23;;;;;;;13.20;5.80;;;32.10;98.20;;;;;;4231566;28;20503;-84
2023/09/11 10:04:25;;;;;;;14.05;5.68;;;32.00;97.80;;;;;;4249256;28;20053;-84
2023/09/11 10:06:27;;;;;;;18.02;5.28;;;31.80;98.00;;;;;;4249298;28;20113;-84
2023/09/11 10:08:29;;;;;;;10.93;5.63;;;31.70;97.70;;;;;;4231461;28;20078;-84
2023/09/11 10:10:30;;;;;;;14.55;5.15;;;31.60;97.60;;;;;;4214972;28;20433;-84
2023/09/11 10:12:31;;;;;;;10.52;5.90;;;31.70;98.50;;;;;;4232337;28;20050;-85
2023/09/11 10:14:33;;;;;;;9.95;4.82;;;31.90;98.00;;;;;;4248419;28;20039;-85
2023/09/11 10:16:34;;;;;;;8.15;4.47;;;32.10;97.80;;;;;;4250078;27;20055;-85
2023/09/11 10:18:35;;;;;;;14.02;4.90;;;32.30;97.60;;;;;;4233973;28;20059;-84
2023/09/11 10:20:36;;;;;;;10.75;5.15;;;32.50;97.10;;;;;;4234267;28;20495;-85
2023/09/11 10:22:38;;;;;;;15.43;5.97;;;32.80;96.90;;;;;;4251438;27;20368;-84